createdAt,value
2022-11-16T00:00:41.150Z,134.38
2022-11-16T00:02:48.415Z,134.04
2022-11-16T00:04:56.809Z,133.42
2022-11-16T00:07:03.526Z,131.74
2022-11-16T00:09:27.321Z,132.43
2022-11-16T00:11:33.145Z,132.28
2022-11-16T00:13:41.540Z,130.32
2022-11-16T00:15:58.676Z,133.59
2022-11-16T00:20:24.076Z,129.04
2022-11-16T00:22:30.779Z,132.33
2022-11-16T00:24:37.305Z,131.92
2022-11-16T00:26:43.388Z,128.72
2022-11-16T00:28:50.967Z,136.45
2022-11-16T00:31:02.675Z,138.21
2022-11-16T00:33:10.924Z,136.50
2022-11-16T00:35:17.608Z,131.84
2022-11-16T00:37:26.024Z,132.29
2022-11-16T00:39:31.895Z,128.92
2022-11-16T00:41:38.438Z,127.41
2022-11-16T00:43:44.342Z,126.42
2022-11-16T00:45:50.495Z,124.89
2022-11-16T00:48:00.467Z,125.97
2022-11-16T00:50:08.806Z,124.95
2022-11-16T00:52:14.514Z,122.73
2022-11-16T00:54:23.636Z,117.56
2022-11-16T00:56:29.578Z,120.18
2022-11-16T00:58:35.724Z,120.19
2022-11-16T01:00:47.487Z,118.77
2022-11-16T01:02:54.753Z,117.51
2022-11-16T01:05:00.812Z,113.07
2022-11-16T01:07:09.268Z,113.39
2022-11-16T01:09:15.054Z,113.33
2022-11-16T01:11:36.052Z,117.29
2022-11-16T01:13:42.635Z,117.76
2022-11-16T01:15:51.626Z,116.42
2022-11-16T01:18:00.084Z,120.17
2022-11-16T01:20:11.286Z,117.41
2022-11-16T01:22:17.033Z,112.45
2022-11-16T01:24:22.983Z,110.90
2022-11-16T01:26:32.490Z,111.62
2022-11-16T01:28:38.509Z,112.66
2022-11-16T01:30:51.510Z,110.88
2022-11-16T01:32:58.128Z,110.78
2022-11-16T01:35:07.173Z,112.19
2022-11-16T01:37:13.872Z,115.96
2022-11-16T01:39:22.307Z,112.84
2022-11-16T01:41:35.451Z,109.84
2022-11-16T01:44:01.902Z,111.26
2022-11-16T01:46:14.558Z,115.15
2022-11-16T01:48:29.028Z,113.92
2022-11-16T01:50:35.471Z,113.41
2022-11-16T01:52:50.636Z,112.76
2022-11-16T01:54:56.154Z,115.11
2022-11-16T01:57:14.604Z,114.88
2022-11-16T01:59:29.647Z,113.98
2022-11-16T02:01:36.492Z,111.60
2022-11-16T02:03:44.463Z,114.89
2022-11-16T02:06:17.939Z,113.57
2022-11-16T02:09:04.862Z,113.39
2022-11-16T02:11:48.262Z,112.16
2022-11-16T02:14:13.908Z,116.65
2022-11-16T02:16:38.814Z,115.41
2022-11-16T02:19:02.895Z,117.02
2022-11-16T02:21:32.902Z,117.37
2022-11-16T02:24:22.838Z,114.04
2022-11-16T02:27:14.408Z,116.61
2022-11-16T02:29:35.646Z,107.41
2022-11-16T02:31:52.568Z,110.23
2022-11-16T02:34:03.704Z,107.54
2022-11-16T02:36:18.627Z,107.70
2022-11-16T02:38:32.828Z,109.82
2022-11-16T02:40:47.963Z,107.94
2022-11-16T02:43:10.281Z,108.16
2022-11-16T02:45:27.416Z,107.74
2022-11-16T02:47:40.025Z,107.57
2022-11-16T02:49:58.611Z,108.96
2022-11-16T02:52:07.231Z,107.79
2022-11-16T02:54:19.641Z,107.11
2022-11-16T02:56:31.521Z,108.21
2022-11-16T02:58:37.300Z,109.29
2022-11-16T03:00:59.228Z,111.33
2022-11-16T03:03:28.700Z,108.81
2022-11-16T03:05:43.546Z,105.37
2022-11-16T03:08:12.048Z,100.88
2022-11-16T03:10:35.489Z,100.43
2022-11-16T03:12:46.200Z,102.04
2022-11-16T03:14:59.745Z,95.39
2022-11-16T03:17:20.817Z,94.52
